createdAt,value
2023-04-13T00:00:41.667Z,92319.98
2023-04-13T00:05:50.848Z,92311.44
2023-04-13T00:10:58.234Z,92310.16
2023-04-13T00:16:06.440Z,92301.00
2023-04-13T00:21:14.936Z,92297.64
2023-04-13T00:26:23.069Z,92297.10
2023-04-13T00:31:29.971Z,92293.92
2023-04-13T00:36:37.424Z,92294.12
2023-04-13T00:41:44.369Z,92283.39
2023-04-13T00:46:54.377Z,92283.48
2023-04-13T00:52:03.678Z,92272.81
2023-04-13T00:57:10.954Z,92270.30
2023-04-13T01:02:20.392Z,92265.22
2023-04-13T01:07:49.358Z,92161.62
2023-04-13T01:13:03.578Z,92245.92
2023-04-13T01:18:12.516Z,92242.35
2023-04-13T01:23:46.591Z,92238.63
2023-04-13T01:28:54.862Z,92244.66
2023-04-13T01:34:01.905Z,92247.56
2023-04-13T01:39:09.428Z,92243.09
2023-04-13T01:44:17.535Z,92243.82
2023-04-13T01:49:25.204Z,92242.50
2023-04-13T01:54:34.033Z,92238.88
2023-04-13T01:59:40.711Z,92240.78
2023-04-13T02:04:47.399Z,92244.75
2023-04-13T02:09:55.282Z,92241.81
2023-04-13T02:15:02.358Z,92231.36
2023-04-13T02:20:12.132Z,92226.93
2023-04-13T02:25:19.192Z,92222.18
2023-04-13T02:30:26.194Z,92228.97
2023-04-13T02:35:35.091Z,92217.48
2023-04-13T02:40:41.515Z,92218.80
2023-04-13T02:45:48.492Z,92223.98
2023-04-13T02:50:56.519Z,92226.73
2023-04-13T02:56:03.295Z,92219.30
2023-04-13T03:01:10.438Z,92216.21
2023-04-13T03:06:17.952Z,92208.52
2023-04-13T03:11:26.491Z,92222.77
2023-04-13T03:16:33.219Z,92213.77
2023-04-13T03:21:41.631Z,92224.63
2023-04-13T03:26:48.862Z,92235.25
2023-04-13T03:31:56.213Z,92245.06
2023-04-13T03:37:03.003Z,92242.77
2023-04-13T03:42:09.890Z,92251.77
2023-04-13T03:47:16.907Z,92263.59
2023-04-13T03:52:23.632Z,92266.56
2023-04-13T03:57:31.068Z,92279.22
2023-04-13T04:02:38.331Z,92280.67
2023-04-13T04:07:45.078Z,92297.59
2023-04-13T04:12:52.082Z,92302.05
2023-04-13T04:17:59.620Z,92313.97
2023-04-13T04:23:06.379Z,92319.72
2023-04-13T04:28:14.672Z,92324.63
2023-04-13T04:33:24.216Z,92330.77
2023-04-13T04:38:32.563Z,92330.17
2023-04-13T04:43:39.349Z,92333.17
2023-04-13T04:48:48.446Z,92332.38
2023-04-13T04:53:58.003Z,92339.48
2023-04-13T04:59:05.195Z,92344.97
2023-04-13T05:04:12.544Z,92347.14
2023-04-13T05:09:20.983Z,92340.27
2023-04-13T05:14:27.762Z,92342.27
2023-04-13T05:19:35.788Z,92345.30
2023-04-13T05:24:43.350Z,92352.41
2023-04-13T05:29:50.979Z,92355.38
2023-04-13T05:34:58.658Z,92352.67
2023-04-13T05:40:07.366Z,92352.47
2023-04-13T05:45:15.718Z,92356.42
2023-04-13T05:50:22.852Z,92359.94
2023-04-13T05:55:30.117Z,92361.64
2023-04-13T06:00:38.226Z,92359.62
2023-04-13T06:05:45.094Z,92379.09
2023-04-13T06:10:52.074Z,92373.53
2023-04-13T06:16:00.376Z,92378.00
2023-04-13T06:21:08.187Z,92375.36
2023-04-13T06:26:14.995Z,92369.65
2023-04-13T06:31:23.670Z,92377.00
2023-04-13T06:36:30.773Z,92376.63
2023-04-13T06:41:38.375Z,92377.59
2023-04-13T06:46:45.270Z,92383.02
2023-04-13T06:51:52.577Z,92387.64
2023-04-13T06:57:01.119Z,92381.48
2023-04-13T07:02:09.903Z,92391.23
2023-04-13T07:07:16.928Z,92402.78
2023-04-13T07:12:23.676Z,92390.38
2023-04-13T07:17:31.058Z,92396.72
2023-04-13T07:22:37.964Z,92398.98
2023-04-13T07:27:44.694Z,92404.63
2023-04-13T07:32:51.422Z,92409.08
2023-04-13T07:37:58.679Z,92412.31
2023-04-13T07:43:06.234Z,92416.87
2023-04-13T07:48:13.158Z,92424.17
2023-04-13T07:53:19.888Z,92425.92
2023-04-13T07:58:26.707Z,92430.94
2023-04-13T08:03:37.188Z,92434.04
2023-04-13T08:08:44.269Z,92431.17
2023-04-13T08:13:51.311Z,92441.36
2023-04-13T08:18:58.680Z,92444.19
2023-04-13T08:24:06.711Z,92445.40
2023-04-13T08:29:14.648Z,92444.33
2023-04-13T08:34:21.854Z,92445.56
2023-04-13T08:39:28.622Z,92440.86
2023-04-13T08:44:35.817Z,92446.64
2023-04-13T08:49:45.017Z,92446.92
2023-04-13T08:54:52.670Z,92454.59
2023-04-13T09:00:01.409Z,92458.40
2023-04-13T09:05:12.984Z,92451.20
2023-04-13T09:10:20.904Z,92280.19
2023-04-13T09:15:27.643Z,92435.79
2023-04-13T09:20:34.380Z,92444.61
2023-04-13T09:25:41.074Z,92445.12
2023-04-13T09:30:48.167Z,92442.02
2023-04-13T09:35:55.322Z,92283.34
2023-04-13T09:41:02.188Z,92453.70
2023-04-13T09:46:17.085Z,92458.60
2023-04-13T09:51:24.478Z,92454.80
2023-04-13T09:56:32.917Z,92462.79
2023-04-13T10:01:41.713Z,92463.02
2023-04-13T10:06:50.867Z,92456.30
2023-04-13T10:12:00.432Z,92449.38
2023-04-13T10:17:14.579Z,92452.40
2023-04-13T10:22:24.181Z,92452.09
2023-04-13T10:27:31.976Z,92451.73
2023-04-13T10:32:43.075Z,92459.62
2023-04-13T10:37:55.141Z,92466.21
2023-04-13T10:43:02.349Z,92470.05
2023-04-13T10:48:09.282Z,92457.05
2023-04-13T10:53:19.839Z,92463.84
2023-04-13T10:58:30.013Z,92459.21
2023-04-13T11:03:37.958Z,92457.58
2023-04-13T11:09:02.228Z,92449.73
2023-04-13T11:13:55.878Z,92447.50
2023-04-13T11:19:07.025Z,92438.41
2023-04-13T11:24:14.686Z,92431.50
2023-04-13T11:29:22.906Z,92433.83
2023-04-13T11:34:30.116Z,92432.09
2023-04-13T11:39:40.662Z,92429.62
2023-04-13T11:44:47.616Z,92432.74
2023-04-13T11:49:54.886Z,92434.45
2023-04-13T11:55:15.409Z,92428.38
2023-04-13T12:00:26.879Z,92423.41
2023-04-13T12:05:35.203Z,92429.23
2023-04-13T12:10:55.201Z,92416.13
2023-04-13T12:16:06.548Z,92415.38
2023-04-13T12:21:05.708Z,92416.13
2023-04-13T12:26:49.924Z,92413.05
2023-04-13T12:31:21.988Z,92420.22
2023-04-13T12:36:30.799Z,92418.91
2023-04-13T12:41:37.594Z,92410.11
2023-04-13T12:46:45.144Z,92412.05
2023-04-13T12:51:52.365Z,92409.39
2023-04-13T12:57:00.097Z,92402.57
2023-04-13T13:02:07.077Z,92405.59
2023-04-13T13:07:14.010Z,92403.33
2023-04-13T13:12:22.319Z,92306.03
2023-04-13T13:17:31.234Z,92396.40
2023-04-13T13:22:38.764Z,92401.09
2023-04-13T13:32:54.803Z,92406.20
2023-04-13T13:38:03.879Z,92420.65
2023-04-13T13:43:11.442Z,92409.59
2023-04-13T13:48:18.491Z,92414.73
2023-04-13T13:53:25.365Z,92421.61
2023-04-13T13:58:32.364Z,92413.66
2023-04-13T14:03:39.515Z,92403.56
2023-04-13T14:08:46.691Z,92391.91
2023-04-13T14:13:55.144Z,92388.58
2023-04-13T14:19:02.344Z,92386.22
2023-04-13T14:24:11.434Z,92389.68
2023-04-13T14:29:18.734Z,92383.98
2023-04-13T14:34:25.939Z,92389.58
2023-04-13T14:39:32.749Z,92376.05
2023-04-13T14:44:39.703Z,92377.97
2023-04-13T14:49:46.736Z,92367.30
2023-04-13T14:54:57.997Z,92354.52
2023-04-13T15:00:06.715Z,92367.16
2023-04-13T15:05:13.625Z,92365.52
2023-04-13T15:10:22.174Z,92369.17
2023-04-13T15:15:31.072Z,92356.52
2023-04-13T15:20:39.195Z,92349.22
2023-04-13T15:25:46.888Z,92351.67
2023-04-13T15:30:54.344Z,92357.52
2023-04-13T15:36:01.331Z,92350.81
2023-04-13T15:41:12.821Z,92355.67
2023-04-13T15:46:19.649Z,92365.45
2023-04-13T15:51:28.029Z,92354.92
2023-04-13T15:56:37.408Z,92360.47
2023-04-13T16:01:51.883Z,92366.58
2023-04-13T16:07:12.047Z,92371.53
2023-04-13T16:12:11.504Z,92369.58
2023-04-13T16:17:19.057Z,92369.38
2023-04-13T16:22:26.277Z,92367.99
2023-04-13T16:27:33.375Z,92369.73
2023-04-13T16:32:43.637Z,92379.41
2023-04-13T16:37:50.418Z,92372.26
2023-04-13T16:42:57.656Z,92361.04
2023-04-13T16:48:05.502Z,92370.43
2023-04-13T16:53:12.578Z,92367.53
2023-04-13T16:58:19.875Z,92366.09
2023-04-13T17:03:28.328Z,92360.27
2023-04-13T17:08:35.300Z,92375.38
2023-04-13T17:13:43.763Z,92369.77
2023-04-13T17:18:50.721Z,92356.39
2023-04-13T17:23:58.097Z,92364.67
2023-04-13T17:29:05.263Z,92350.03
2023-04-13T17:34:12.139Z,92350.73
2023-04-13T17:39:18.865Z,92343.94
2023-04-13T17:44:26.011Z,92337.06
2023-04-13T17:49:33.067Z,92328.84
2023-04-13T17:54:42.427Z,92324.53
2023-04-13T17:59:49.798Z,92330.79
2023-04-13T18:04:57.252Z,92320.66
2023-04-13T18:10:05.781Z,92326.49
2023-04-13T18:15:12.965Z,92337.41
2023-04-13T18:20:20.184Z,92344.47
2023-04-13T18:25:27.044Z,92355.31
2023-04-13T18:30:34.178Z,92363.16
2023-04-13T18:35:47.403Z,92364.54
2023-04-13T18:40:54.579Z,92366.09
2023-04-13T18:46:02.259Z,92371.39
2023-04-13T18:51:10.840Z,92365.53
2023-04-13T18:56:17.944Z,92363.20
2023-04-13T19:01:25.127Z,92366.13
2023-04-13T19:06:32.298Z,92373.85
2023-04-13T19:11:51.943Z,92377.79
2023-04-13T19:17:00.040Z,92375.95
2023-04-13T19:22:07.014Z,92369.63
2023-04-13T19:27:14.794Z,92364.74
2023-04-13T19:32:22.071Z,92358.64
2023-04-13T19:37:28.925Z,92356.77
2023-04-13T19:42:35.977Z,92347.69
2023-04-13T19:47:44.752Z,92338.64
2023-04-13T19:52:53.286Z,92338.14
2023-04-13T19:58:00.465Z,92324.47
2023-04-13T20:03:09.004Z,92305.81
2023-04-13T20:08:16.967Z,92304.88
2023-04-13T20:13:24.315Z,92296.38
2023-04-13T20:18:32.324Z,92282.92
2023-04-13T20:23:40.119Z,92286.89
2023-04-13T20:28:47.005Z,92282.16
2023-04-13T20:33:54.538Z,92282.41
2023-04-13T20:39:01.458Z,92284.23
2023-04-13T20:44:10.281Z,92281.39
2023-04-13T20:49:17.991Z,92296.06
2023-04-13T20:54:25.072Z,92291.65
2023-04-13T20:59:31.901Z,92297.74
2023-04-13T21:04:39.337Z,92289.09
2023-04-13T21:09:46.534Z,92276.23
2023-04-13T21:14:53.521Z,92269.16
2023-04-13T21:20:00.314Z,92253.16
2023-04-13T21:25:08.245Z,92248.97
2023-04-13T21:30:15.261Z,92245.00
2023-04-13T21:35:24.050Z,92270.99
2023-04-13T21:40:31.517Z,92238.72
2023-04-13T21:45:38.820Z,92243.20
2023-04-13T21:50:48.696Z,92238.47
2023-04-13T21:55:55.855Z,92225.59
2023-04-13T22:01:02.855Z,92223.24
2023-04-13T22:06:32.132Z,92227.43
2023-04-13T22:11:40.321Z,92224.80
2023-04-13T22:16:48.818Z,92226.37
2023-04-13T22:21:55.931Z,92232.94
2023-04-13T22:27:04.731Z,92222.19
2023-04-13T22:32:11.643Z,92216.41
2023-04-13T22:37:18.383Z,92208.54
2023-04-13T22:42:25.246Z,92201.22
2023-04-13T22:47:32.479Z,92194.13
2023-04-13T22:52:39.523Z,92191.50
2023-04-13T22:57:47.943Z,92195.93
2023-04-13T23:02:56.411Z,92193.84
2023-04-13T23:08:03.875Z,92199.62
2023-04-13T23:13:11.844Z,92178.63
2023-04-13T23:18:18.598Z,92165.27
2023-04-13T23:23:25.855Z,92151.91
2023-04-13T23:28:32.783Z,92159.25
2023-04-13T23:33:39.975Z,92157.41
2023-04-13T23:38:54.673Z,92168.67
2023-04-13T23:44:02.200Z,92147.19
2023-04-13T23:49:09.713Z,92144.05
2023-04-13T23:54:16.472Z,92149.29
2023-04-13T23:59:23.709Z,92150.06
